sensor_id;sensor_type;location;lat;lon;timestamp;P1;durP1;ratioP1;P2;durP2;ratioP2
68229;SDS011;55048;52.220;5.160;2022-11-15T00:01:41;49.10;;;19.73;;
68229;SDS011;55048;52.220;5.160;2022-11-15T00:04:25;38.03;;;19.48;;
68229;SDS011;55048;52.220;5.160;2022-11-15T00:07:09;38.63;;;17.92;;
68229;SDS011;55048;52.220;5.160;2022-11-15T00:09:53;48.13;;;20.15;;
68229;SDS011;55048;52.220;5.160;2022-11-15T00:12:37;45.88;;;19.58;;
68229;SDS011;55048;52.220;5.160;2022-11-15T00:15:21;46.28;;;19.52;;
68229;SDS011;55048;52.220;5.160;2022-11-15T00:18:05;50.45;;;21.67;;
68229;SDS011;55048;52.220;5.160;2022-11-15T00:20:55;52.70;;;21.40;;
68229;SDS011;55048;52.220;5.160;2022-11-15T00:23:40;54.58;;;20.85;;
68229;SDS011;55048;52.220;5.160;2022-11-15T00:26:23;51.20;;;18.95;;
68229;SDS011;55048;52.220;5.160;2022-11-15T00:29:07;50.67;;;19.10;;
68229;SDS011;55048;52.220;5.160;2022-11-15T00:31:51;55.47;;;20.58;;
68229;SDS011;55048;52.220;5.160;2022-11-15T00:34:36;50.47;;;20.10;;
68229;SDS011;55048;52.220;5.160;2022-11-15T00:37:19;65.53;;;22.20;;
68229;SDS011;55048;52.220;5.160;2022-11-15T00:40:04;58.30;;;19.05;;
68229;SDS011;55048;52.220;5.160;2022-11-15T00:42:48;57.50;;;19.90;;
68229;SDS011;55048;52.220;5.160;2022-11-15T00:45:31;70.55;;;21.02;;
68229;SDS011;55048;52.220;5.160;2022-11-15T00:48:15;69.38;;;21.38;;
68229;SDS011;55048;52.220;5.160;2022-11-15T00:50:59;65.93;;;20.17;;
68229;SDS011;55048;52.220;5.160;2022-11-15T00:53:43;63.08;;;20.73;;
68229;SDS011;55048;52.220;5.160;2022-11-15T00:56:27;76.65;;;21.95;;
68229;SDS011;55048;52.220;5.160;2022-11-15T00:59:11;67.65;;;21.45;;
68229;SDS011;55048;52.220;5.160;2022-11-15T01:01:55;56.97;;;20.52;;
68229;SDS011;55048;52.220;5.160;2022-11-15T01:04:39;69.55;;;21.83;;
68229;SDS011;55048;52.220;5.160;2022-11-15T01:07:23;81.00;;;22.33;;
68229;SDS011;55048;52.220;5.160;2022-11-15T01:10:08;88.85;;;23.38;;
68229;SDS011;55048;52.220;5.160;2022-11-15T01:12:52;70.40;;;21.80;;
68229;SDS011;55048;52.220;5.160;2022-11-15T01:15:38;81.63;;;23.63;;
68229;SDS011;55048;52.220;5.160;2022-11-15T01:18:23;61.08;;;20.88;;
68229;SDS011;55048;52.220;5.160;2022-11-15T01:21:12;92.03;;;23.85;;
68229;SDS011;55048;52.220;5.160;2022-11-15T01:23:57;79.03;;;22.63;;
68229;SDS011;55048;52.220;5.160;2022-11-15T01:26:41;70.18;;;21.92;;
68229;SDS011;55048;52.220;5.160;2022-11-15T01:29:25;76.82;;;23.88;;
68229;SDS011;55048;52.220;5.160;2022-11-15T01:32:09;78.72;;;24.52;;
68229;SDS011;55048;52.220;5.160;2022-11-15T01:34:53;78.57;;;23.08;;
68229;SDS011;55048;52.220;5.160;2022-11-15T01:37:37;83.28;;;23.08;;
68229;SDS011;55048;52.220;5.160;2022-11-15T01:40:21;69.68;;;21.92;;
68229;SDS011;55048;52.220;5.160;2022-11-15T01:43:22;69.55;;;21.67;;
68229;SDS011;55048;52.220;5.160;2022-11-15T01:46:27;84.03;;;23.92;;
68229;SDS011;55048;52.220;5.160;2022-11-15T01:49:17;82.53;;;24.23;;
68229;SDS011;55048;52.220;5.160;2022-11-15T01:52:05;78.57;;;23.60;;
68229;SDS011;55048;52.220;5.160;2022-11-15T01:57:50;77.00;;;21.73;;
68229;SDS011;55048;52.220;5.160;2022-11-15T02:00:37;78.95;;;24.52;;
68229;SDS011;55048;52.220;5.160;2022-11-15T02:03:21;77.95;;;25.00;;
68229;SDS011;55048;52.220;5.160;2022-11-15T02:06:10;74.45;;;24.23;;
68229;SDS011;55048;52.220;5.160;2022-11-15T02:08:55;77.78;;;24.05;;
68229;SDS011;55048;52.220;5.160;2022-11-15T02:11:40;74.93;;;25.77;;
68229;SDS011;55048;52.220;5.160;2022-11-15T02:14:25;77.32;;;24.38;;
68229;SDS011;55048;52.220;5.160;2022-11-15T02:20:29;81.50;;;25.85;;
68229;SDS011;55048;52.220;5.160;2022-11-15T02:32:20;88.13;;;27.55;;
68229;SDS011;55048;52.220;5.160;2022-11-15T02:38:15;83.20;;;26.80;;
68229;SDS011;55048;52.220;5.160;2022-11-15T02:41:07;90.55;;;28.30;;
68229;SDS011;55048;52.220;5.160;2022-11-15T02:44:01;83.10;;;25.38;;
68229;SDS011;55048;52.220;5.160;2022-11-15T02:46:51;95.75;;;27.33;;
68229;SDS011;55048;52.220;5.160;2022-11-15T02:49:57;97.85;;;27.83;;
68229;SDS011;55048;52.220;5.160;2022-11-15T02:52:44;104.27;;;29.93;;
68229;SDS011;55048;52.220;5.160;2022-11-15T02:55:40;85.80;;;27.38;;
68229;SDS011;55048;52.220;5.160;2022-11-15T03:04:44;93.82;;;27.23;;
68229;SDS011;55048;52.220;5.160;2022-11-15T03:07:49;116.35;;;30.10;;
68229;SDS011;55048;52.220;5.160;2022-11-15T03:10:42;109.22;;;28.67;;
68229;SDS011;55048;52.220;5.160;2022-11-15T03:16:36;76.30;;;24.92;;
68229;SDS011;55048;52.220;5.160;2022-11-15T03:22:15;111.32;;;28.10;;
68229;SDS011;55048;52.220;5.160;2022-11-15T03:25:04;119.88;;;31.30;;
68229;SDS011;55048;52.220;5.160;2022-11-15T03:27:52;127.80;;;30.90;;
68229;SDS011;55048;52.220;5.160;2022-11-15T03:30:39;112.75;;;29.77;;
68229;SDS011;55048;52.220;5.160;2022-11-15T03:33:24;115.95;;;29.63;;
68229;SDS011;55048;52.220;5.160;2022-11-15T03:36:09;110.82;;;28.35;;
68229;SDS011;55048;52.220;5.160;2022-11-15T03:38:54;126.55;;;31.48;;
68229;SDS011;55048;52.220;5.160;2022-11-15T03:42:18;117.75;;;31.63;;
68229;SDS011;55048;52.220;5.160;2022-11-15T03:45:02;98.90;;;28.60;;
68229;SDS011;55048;52.220;5.160;2022-11-15T03:48:09;103.20;;;29.73;;
68229;SDS011;55048;52.220;5.160;2022-11-15T03:50:58;102.20;;;28.73;;
68229;SDS011;55048;52.220;5.160;2022-11-15T03:53:42;113.57;;;29.77;;
68229;SDS011;55048;52.220;5.160;2022-11-15T03:56:26;101.07;;;30.95;;
68229;SDS011;55048;52.220;5.160;2022-11-15T03:59:10;109.68;;;32.78;;
68229;SDS011;55048;52.220;5.160;2022-11-15T04:01:53;107.63;;;32.95;;
68229;SDS011;55048;52.220;5.160;2022-11-15T04:04:37;103.47;;;31.83;;
68229;SDS011;55048;52.220;5.160;2022-11-15T04:07:22;108.97;;;33.15;;
68229;SDS011;55048;52.220;5.160;2022-11-15T04:10:06;96.43;;;30.65;;
68229;SDS011;55048;52.220;5.160;2022-11-15T04:12:50;104.70;;;31.80;;
68229;SDS011;55048;52.220;5.160;2022-11-15T04:15:34;97.05;;;31.83;;
68229;SDS011;55048;52.220;5.160;2022-11-15T04:18:18;105.07;;;32.60;;
68229;SDS011;55048;52.220;5.160;2022-11-15T04:21:02;101.22;;;30.05;;
68229;SDS011;55048;52.220;5.160;2022-11-15T04:24:05;84.93;;;30.05;;
68229;SDS011;55048;52.220;5.160;2022-11-15T04:29:39;65.32;;;26.52;;
68229;SDS011;55048;52.220;5.160;2022-11-15T04:32:23;66.82;;;26.65;;
68229;SDS011;55048;52.220;5.160;2022-11-15T04:35:07;64.93;;;24.85;;
68229;SDS011;55048;52.220;5.160;2022-11-15T04:37:52;74.18;;;26.17;;
68229;SDS011;55048;52.220;5.160;2022-11-15T04:40:37;61.72;;;24.30;;
68229;SDS011;55048;52.220;5.160;2022-11-15T04:43:21;74.32;;;27.42;;
68229;SDS011;55048;52.220;5.160;2022-11-15T04:46:05;62.58;;;26.00;;
68229;SDS011;55048;52.220;5.160;2022-11-15T04:48:49;73.22;;;28.70;;
68229;SDS011;55048;52.220;5.160;2022-11-15T04:51:33;80.85;;;28.80;;
68229;SDS011;55048;52.220;5.160;2022-11-15T04:54:17;71.57;;;27.67;;
68229;SDS011;55048;52.220;5.160;2022-11-15T04:57:01;79.57;;;27.10;;
68229;SDS011;55048;52.220;5.160;2022-11-15T04:59:45;79.32;;;28.55;;
68229;SDS011;55048;52.220;5.160;2022-11-15T05:02:29;68.10;;;25.83;;
68229;SDS011;55048;52.220;5.160;2022-11-15T05:05:33;67.28;;;24.50;;
68229;SDS011;55048;52.220;5.160;2022-11-15T05:08:17;72.85;;;26.40;;
68229;SDS011;55048;52.220;5.160;2022-11-15T05:11:01;76.70;;;26.98;;
68229;SDS011;55048;52.220;5.160;2022-11-15T05:13:45;61.47;;;24.80;;
68229;SDS011;55048;52.220;5.160;2022-11-15T05:16:29;60.67;;;25.77;;
68229;SDS011;55048;52.220;5.160;2022-11-15T05:19:13;69.72;;;25.77;;
68229;SDS011;55048;52.220;5.160;2022-11-15T05:21:57;63.75;;;25.23;;
68229;SDS011;55048;52.220;5.160;2022-11-15T05:24:41;75.10;;;26.45;;
68229;SDS011;55048;52.220;5.160;2022-11-15T05:27:25;80.00;;;27.67;;
68229;SDS011;55048;52.220;5.160;2022-11-15T05:30:09;67.03;;;25.10;;
68229;SDS011;55048;52.220;5.160;2022-11-15T05:32:54;64.05;;;25.58;;
68229;SDS011;55048;52.220;5.160;2022-11-15T05:35:41;64.10;;;24.33;;
68229;SDS011;55048;52.220;5.160;2022-11-15T05:38:29;59.25;;;23.50;;
68229;SDS011;55048;52.220;5.160;2022-11-15T05:41:13;71.72;;;26.75;;
68229;SDS011;55048;52.220;5.160;2022-11-15T05:43:59;64.60;;;24.80;;
68229;SDS011;55048;52.220;5.160;2022-11-15T05:46:44;74.72;;;25.92;;
68229;SDS011;55048;52.220;5.160;2022-11-15T05:49:30;67.50;;;24.50;;
68229;SDS011;55048;52.220;5.160;2022-11-15T05:52:19;59.40;;;22.27;;
68229;SDS011;55048;52.220;5.160;2022-11-15T05:55:08;60.80;;;24.45;;
68229;SDS011;55048;52.220;5.160;2022-11-15T05:57:52;61.03;;;25.25;;
68229;SDS011;55048;52.220;5.160;2022-11-15T06:00:36;66.63;;;24.75;;
68229;SDS011;55048;52.220;5.160;2022-11-15T06:03:20;65.53;;;23.48;;
68229;SDS011;55048;52.220;5.160;2022-11-15T06:06:04;66.88;;;24.48;;
68229;SDS011;55048;52.220;5.160;2022-11-15T06:08:49;59.03;;;23.00;;
68229;SDS011;55048;52.220;5.160;2022-11-15T06:11:33;68.35;;;24.48;;
68229;SDS011;55048;52.220;5.160;2022-11-15T06:14:17;61.25;;;24.60;;
68229;SDS011;55048;52.220;5.160;2022-11-15T06:17:00;54.83;;;23.50;;
68229;SDS011;55048;52.220;5.160;2022-11-15T06:19:45;55.60;;;22.95;;
68229;SDS011;55048;52.220;5.160;2022-11-15T06:22:29;57.92;;;25.35;;
68229;SDS011;55048;52.220;5.160;2022-11-15T06:25:13;59.15;;;25.60;;
68229;SDS011;55048;52.220;5.160;2022-11-15T06:27:57;52.28;;;24.63;;
68229;SDS011;55048;52.220;5.160;2022-11-15T06:30:42;60.00;;;24.33;;
68229;SDS011;55048;52.220;5.160;2022-11-15T06:33:26;62.65;;;25.38;;
68229;SDS011;55048;52.220;5.160;2022-11-15T06:36:11;59.33;;;24.80;;
68229;SDS011;55048;52.220;5.160;2022-11-15T06:39:04;57.95;;;25.30;;
68229;SDS011;55048;52.220;5.160;2022-11-15T06:41:48;68.85;;;24.58;;
68229;SDS011;55048;52.220;5.160;2022-11-15T06:44:32;58.95;;;24.35;;
68229;SDS011;55048;52.220;5.160;2022-11-15T06:47:16;55.78;;;23.30;;
68229;SDS011;55048;52.220;5.160;2022-11-15T06:50:00;91.35;;;23.67;;
68229;SDS011;55048;52.220;5.160;2022-11-15T06:52:44;55.50;;;22.63;;
68229;SDS011;55048;52.220;5.160;2022-11-15T06:55:28;49.40;;;23.10;;
68229;SDS011;55048;52.220;5.160;2022-11-15T06:58:13;47.28;;;22.45;;
68229;SDS011;55048;52.220;5.160;2022-11-15T07:01:01;52.55;;;22.45;;
68229;SDS011;55048;52.220;5.160;2022-11-15T07:03:47;57.65;;;22.42;;
68229;SDS011;55048;52.220;5.160;2022-11-15T07:06:31;61.08;;;22.83;;
68229;SDS011;55048;52.220;5.160;2022-11-15T07:09:15;50.78;;;22.52;;
68229;SDS011;55048;52.220;5.160;2022-11-15T07:11:59;52.13;;;22.63;;
68229;SDS011;55048;52.220;5.160;2022-11-15T07:14:43;41.90;;;20.33;;
68229;SDS011;55048;52.220;5.160;2022-11-15T07:17:27;42.28;;;21.52;;
68229;SDS011;55048;52.220;5.160;2022-11-15T07:20:11;37.80;;;19.30;;
68229;SDS011;55048;52.220;5.160;2022-11-15T07:23:00;43.58;;;20.15;;
68229;SDS011;55048;52.220;5.160;2022-11-15T07:25:45;49.65;;;21.52;;
68229;SDS011;55048;52.220;5.160;2022-11-15T07:28:29;47.90;;;20.77;;
68229;SDS011;55048;52.220;5.160;2022-11-15T07:31:13;43.55;;;20.10;;
68229;SDS011;55048;52.220;5.160;2022-11-15T07:33:57;42.40;;;20.33;;
68229;SDS011;55048;52.220;5.160;2022-11-15T07:36:41;42.35;;;19.80;;
68229;SDS011;55048;52.220;5.160;2022-11-15T07:39:25;42.70;;;18.20;;
68229;SDS011;55048;52.220;5.160;2022-11-15T07:42:09;40.75;;;18.75;;
68229;SDS011;55048;52.220;5.160;2022-11-15T07:45:12;39.20;;;17.02;;
68229;SDS011;55048;52.220;5.160;2022-11-15T07:47:56;43.10;;;16.98;;
68229;SDS011;55048;52.220;5.160;2022-11-15T07:50:41;37.63;;;17.02;;
68229;SDS011;55048;52.220;5.160;2022-11-15T07:53:25;42.25;;;17.35;;
68229;SDS011;55048;52.220;5.160;2022-11-15T07:56:09;42.10;;;18.40;;
68229;SDS011;55048;52.220;5.160;2022-11-15T07:58:54;38.38;;;17.25;;
68229;SDS011;55048;52.220;5.160;2022-11-15T08:01:39;34.15;;;15.95;;
68229;SDS011;55048;52.220;5.160;2022-11-15T08:04:23;36.40;;;17.92;;
68229;SDS011;55048;52.220;5.160;2022-11-15T08:07:07;36.15;;;15.93;;
68229;SDS011;55048;52.220;5.160;2022-11-15T08:09:51;38.17;;;15.40;;
68229;SDS011;55048;52.220;5.160;2022-11-15T08:12:35;29.60;;;14.65;;
68229;SDS011;55048;52.220;5.160;2022-11-15T08:15:19;63.10;;;17.10;;
68229;SDS011;55048;52.220;5.160;2022-11-15T08:18:04;27.65;;;15.52;;
68229;SDS011;55048;52.220;5.160;2022-11-15T08:20:49;31.27;;;15.48;;
68229;SDS011;55048;52.220;5.160;2022-11-15T08:23:33;33.47;;;15.32;;
68229;SDS011;55048;52.220;5.160;2022-11-15T08:26:17;35.05;;;14.50;;
68229;SDS011;55048;52.220;5.160;2022-11-15T08:29:01;37.65;;;14.63;;
68229;SDS011;55048;52.220;5.160;2022-11-15T08:31:45;36.83;;;15.75;;
68229;SDS011;55048;52.220;5.160;2022-11-15T08:34:29;24.08;;;12.25;;
68229;SDS011;55048;52.220;5.160;2022-11-15T08:37:13;31.15;;;14.55;;
68229;SDS011;55048;52.220;5.160;2022-11-15T08:39:57;28.95;;;14.13;;
68229;SDS011;55048;52.220;5.160;2022-11-15T08:42:41;27.38;;;13.65;;
68229;SDS011;55048;52.220;5.160;2022-11-15T08:45:25;30.80;;;13.82;;
68229;SDS011;55048;52.220;5.160;2022-11-15T08:48:08;27.98;;;12.70;;
68229;SDS011;55048;52.220;5.160;2022-11-15T08:50:53;26.05;;;12.05;;
68229;SDS011;55048;52.220;5.160;2022-11-15T08:53:38;24.63;;;11.85;;
68229;SDS011;55048;52.220;5.160;2022-11-15T08:56:22;23.52;;;11.20;;
68229;SDS011;55048;52.220;5.160;2022-11-15T08:59:06;33.08;;;12.48;;
68229;SDS011;55048;52.220;5.160;2022-11-15T09:01:50;24.35;;;11.85;;
68229;SDS011;55048;52.220;5.160;2022-11-15T09:04:34;21.92;;;10.10;;
68229;SDS011;55048;52.220;5.160;2022-11-15T09:07:18;19.90;;;10.60;;
68229;SDS011;55048;52.220;5.160;2022-11-15T09:10:02;19.13;;;9.98;;
68229;SDS011;55048;52.220;5.160;2022-11-15T09:12:46;20.48;;;8.63;;
68229;SDS011;55048;52.220;5.160;2022-11-15T09:15:32;21.85;;;9.05;;
68229;SDS011;55048;52.220;5.160;2022-11-15T09:18:15;21.75;;;8.57;;
68229;SDS011;55048;52.220;5.160;2022-11-15T09:21:00;20.85;;;8.98;;
68229;SDS011;55048;52.220;5.160;2022-11-15T09:23:46;14.63;;;8.13;;
68229;SDS011;55048;52.220;5.160;2022-11-15T09:26:30;16.65;;;7.88;;
68229;SDS011;55048;52.220;5.160;2022-11-15T09:29:14;13.68;;;6.97;;
68229;SDS011;55048;52.220;5.160;2022-11-15T09:31:57;18.42;;;7.60;;
68229;SDS011;55048;52.220;5.160;2022-11-15T09:34:41;14.43;;;7.25;;
68229;SDS011;55048;52.220;5.160;2022-11-15T09:37:25;13.70;;;7.05;;
68229;SDS011;55048;52.220;5.160;2022-11-15T09:40:10;16.35;;;8.40;;
68229;SDS011;55048;52.220;5.160;2022-11-15T09:49:16;15.68;;;6.03;;
68229;SDS011;55048;52.220;5.160;2022-11-15T09:52:01;10.80;;;6.03;;
68229;SDS011;55048;52.220;5.160;2022-11-15T09:54:32;12.63;;;5.78;;
68229;SDS011;55048;52.220;5.160;2022-11-15T09:59:41;9.82;;;5.70;;
68229;SDS011;55048;52.220;5.160;2022-11-15T10:05:19;9.30;;;4.53;;
68229;SDS011;55048;52.220;5.160;2022-11-15T10:07:54;11.88;;;5.45;;
68229;SDS011;55048;52.220;5.160;2022-11-15T10:13:28;8.95;;;3.65;;
68229;SDS011;55048;52.220;5.160;2022-11-15T10:16:04;9.50;;;3.30;;
68229;SDS011;55048;52.220;5.160;2022-11-15T10:18:56;4.53;;;2.72;;
68229;SDS011;55048;52.220;5.160;2022-11-15T10:24:44;10.00;;;2.65;;
68229;SDS011;55048;52.220;5.160;2022-11-15T10:27:11;6.07;;;3.20;;
68229;SDS011;55048;52.220;5.160;2022-11-15T10:29:46;5.80;;;2.88;;
68229;SDS011;55048;52.220;5.160;2022-11-15T10:32:13;8.25;;;3.15;;
68229;SDS011;55048;52.220;5.160;2022-11-15T10:34:39;8.98;;;3.33;;
68229;SDS011;55048;52.220;5.160;2022-11-15T10:37:05;7.47;;;3.03;;
68229;SDS011;55048;52.220;5.160;2022-11-15T10:39:30;10.50;;;3.78;;
68229;SDS011;55048;52.220;5.160;2022-11-15T10:41:56;7.40;;;3.10;;
68229;SDS011;55048;52.220;5.160;2022-11-15T10:44:23;8.57;;;2.58;;
68229;SDS011;55048;52.220;5.160;2022-11-15T10:49:28;7.15;;;3.42;;
68229;SDS011;55048;52.220;5.160;2022-11-15T10:51:57;12.02;;;3.13;;
68229;SDS011;55048;52.220;5.160;2022-11-15T10:54:23;7.55;;;3.13;;
68229;SDS011;55048;52.220;5.160;2022-11-15T10:57:12;8.38;;;2.85;;
68229;SDS011;55048;52.220;5.160;2022-11-15T10:59:41;9.85;;;3.00;;
68229;SDS011;55048;52.220;5.160;2022-11-15T11:02:32;5.20;;;2.60;;
68229;SDS011;55048;52.220;5.160;2022-11-15T11:05:00;6.95;;;2.83;;
68229;SDS011;55048;52.220;5.160;2022-11-15T11:07:29;5.18;;;2.92;;
68229;SDS011;55048;52.220;5.160;2022-11-15T11:09:57;4.80;;;2.30;;
68229;SDS011;55048;52.220;5.160;2022-11-15T11:12:28;7.07;;;2.45;;
68229;SDS011;55048;52.220;5.160;2022-11-15T11:14:57;6.32;;;2.55;;
68229;SDS011;55048;52.220;5.160;2022-11-15T11:17:26;8.73;;;2.00;;
68229;SDS011;55048;52.220;5.160;2022-11-15T11:20:06;6.15;;;1.98;;
68229;SDS011;55048;52.220;5.160;2022-11-15T11:27:51;4.40;;;1.50;;
68229;SDS011;55048;52.220;5.160;2022-11-15T11:36:18;5.25;;;0.95;;
68229;SDS011;55048;52.220;5.160;2022-11-15T11:38:50;9.07;;;1.00;;
68229;SDS011;55048;52.220;5.160;2022-11-15T11:41:27;3.65;;;0.98;;
68229;SDS011;55048;52.220;5.160;2022-11-15T11:44:17;4.80;;;0.90;;
68229;SDS011;55048;52.220;5.160;2022-11-15T11:49:34;3.65;;;0.98;;
68229;SDS011;55048;52.220;5.160;2022-11-15T11:54:49;3.60;;;0.90;;
68229;SDS011;55048;52.220;5.160;2022-11-15T11:57:28;5.57;;;0.60;;
68229;SDS011;55048;52.220;5.160;2022-11-15T12:00:42;3.97;;;0.70;;
68229;SDS011;55048;52.220;5.160;2022-11-15T12:05:28;4.47;;;0.80;;
68229;SDS011;55048;52.220;5.160;2022-11-15T12:08:09;7.90;;;0.90;;
68229;SDS011;55048;52.220;5.160;2022-11-15T12:10:39;8.48;;;0.77;;
68229;SDS011;55048;52.220;5.160;2022-11-15T12:13:15;4.90;;;0.93;;
68229;SDS011;55048;52.220;5.160;2022-11-15T12:18:17;5.90;;;0.50;;
68229;SDS011;55048;52.220;5.160;2022-11-15T12:20:54;5.22;;;1.08;;
68229;SDS011;55048;52.220;5.160;2022-11-15T12:23:23;5.30;;;0.70;;
68229;SDS011;55048;52.220;5.160;2022-11-15T12:28:56;3.67;;;0.50;;
68229;SDS011;55048;52.220;5.160;2022-11-15T12:34:01;6.03;;;0.55;;
68229;SDS011;55048;52.220;5.160;2022-11-15T12:36:30;5.43;;;0.68;;
68229;SDS011;55048;52.220;5.160;2022-11-15T12:39:08;3.83;;;0.57;;
68229;SDS011;55048;52.220;5.160;2022-11-15T12:41:35;1.83;;;0.40;;
68229;SDS011;55048;52.220;5.160;2022-11-15T12:44:03;4.53;;;0.70;;
68229;SDS011;55048;52.220;5.160;2022-11-15T12:48:59;6.40;;;0.50;;
68229;SDS011;55048;52.220;5.160;2022-11-15T12:59:50;5.10;;;0.40;;
68229;SDS011;55048;52.220;5.160;2022-11-15T13:02:22;4.60;;;0.55;;
68229;SDS011;55048;52.220;5.160;2022-11-15T13:04:48;5.90;;;0.50;;
68229;SDS011;55048;52.220;5.160;2022-11-15T13:12:53;8.82;;;0.70;;
68229;SDS011;55048;52.220;5.160;2022-11-15T13:18:23;3.22;;;0.40;;
68229;SDS011;55048;52.220;5.160;2022-11-15T13:23:51;3.50;;;0.50;;
68229;SDS011;55048;52.220;5.160;2022-11-15T13:28:47;5.30;;;0.43;;
68229;SDS011;55048;52.220;5.160;2022-11-15T13:34:15;7.28;;;0.40;;
68229;SDS011;55048;52.220;5.160;2022-11-15T13:36:58;14.82;;;0.50;;
68229;SDS011;55048;52.220;5.160;2022-11-15T13:41:49;4.18;;;0.40;;
68229;SDS011;55048;52.220;5.160;2022-11-15T13:44:20;3.13;;;0.57;;
68229;SDS011;55048;52.220;5.160;2022-11-15T13:46:47;6.70;;;0.60;;
68229;SDS011;55048;52.220;5.160;2022-11-15T13:49:13;3.80;;;0.70;;
68229;SDS011;55048;52.220;5.160;2022-11-15T13:51:43;4.38;;;0.50;;
68229;SDS011;55048;52.220;5.160;2022-11-15T13:56:38;5.60;;;0.60;;
68229;SDS011;55048;52.220;5.160;2022-11-15T13:59:09;5.57;;;0.70;;
68229;SDS011;55048;52.220;5.160;2022-11-15T14:01:36;4.65;;;0.45;;
68229;SDS011;55048;52.220;5.160;2022-11-15T14:04:01;2.35;;;0.50;;
68229;SDS011;55048;52.220;5.160;2022-11-15T14:06:29;4.90;;;0.50;;
68229;SDS011;55048;52.220;5.160;2022-11-15T14:11:25;3.72;;;0.60;;
68229;SDS011;55048;52.220;5.160;2022-11-15T14:14:25;7.00;;;0.68;;
68229;SDS011;55048;52.220;5.160;2022-11-15T14:16:46;4.43;;;0.70;;
68229;SDS011;55048;52.220;5.160;2022-11-15T14:24:32;5.53;;;0.60;;
68229;SDS011;55048;52.220;5.160;2022-11-15T14:27:15;4.78;;;0.60;;
68229;SDS011;55048;52.220;5.160;2022-11-15T14:29:41;2.97;;;0.63;;
68229;SDS011;55048;52.220;5.160;2022-11-15T14:32:20;4.10;;;0.82;;
68229;SDS011;55048;52.220;5.160;2022-11-15T14:34:48;7.32;;;0.93;;
68229;SDS011;55048;52.220;5.160;2022-11-15T14:37:22;7.13;;;1.20;;
68229;SDS011;55048;52.220;5.160;2022-11-15T14:40:01;4.50;;;0.70;;
68229;SDS011;55048;52.220;5.160;2022-11-15T14:42:28;3.65;;;0.63;;
68229;SDS011;55048;52.220;5.160;2022-11-15T14:44:53;7.10;;;0.73;;
68229;SDS011;55048;52.220;5.160;2022-11-15T14:47:19;3.83;;;0.60;;
68229;SDS011;55048;52.220;5.160;2022-11-15T14:49:44;4.28;;;0.60;;
68229;SDS011;55048;52.220;5.160;2022-11-15T14:54:49;3.47;;;0.60;;
68229;SDS011;55048;52.220;5.160;2022-11-15T14:57:14;6.68;;;0.70;;
68229;SDS011;55048;52.220;5.160;2022-11-15T14:59:40;2.45;;;0.60;;
68229;SDS011;55048;52.220;5.160;2022-11-15T15:05:00;2.85;;;0.50;;
68229;SDS011;55048;52.220;5.160;2022-11-15T15:07:29;12.35;;;0.60;;
68229;SDS011;55048;52.220;5.160;2022-11-15T15:09:54;7.40;;;0.80;;
68229;SDS011;55048;52.220;5.160;2022-11-15T15:12:20;4.22;;;0.68;;
68229;SDS011;55048;52.220;5.160;2022-11-15T15:14:48;4.60;;;0.70;;
68229;SDS011;55048;52.220;5.160;2022-11-15T15:17:14;5.10;;;0.57;;
68229;SDS011;55048;52.220;5.160;2022-11-15T15:19:41;5.03;;;0.70;;
68229;SDS011;55048;52.220;5.160;2022-11-15T15:22:16;1.80;;;0.70;;
68229;SDS011;55048;52.220;5.160;2022-11-15T15:24:43;3.33;;;0.50;;
68229;SDS011;55048;52.220;5.160;2022-11-15T15:27:09;1.42;;;0.55;;
68229;SDS011;55048;52.220;5.160;2022-11-15T15:29:36;3.35;;;0.60;;
68229;SDS011;55048;52.220;5.160;2022-11-15T15:32:01;3.92;;;0.50;;
68229;SDS011;55048;52.220;5.160;2022-11-15T15:34:27;2.10;;;0.47;;
68229;SDS011;55048;52.220;5.160;2022-11-15T15:37:09;5.00;;;0.90;;
68229;SDS011;55048;52.220;5.160;2022-11-15T15:39:55;5.43;;;0.50;;
68229;SDS011;55048;52.220;5.160;2022-11-15T15:42:22;1.08;;;0.40;;
68229;SDS011;55048;52.220;5.160;2022-11-15T15:44:48;5.15;;;0.50;;
68229;SDS011;55048;52.220;5.160;2022-11-15T15:47:15;3.75;;;0.57;;
68229;SDS011;55048;52.220;5.160;2022-11-15T15:49:43;2.60;;;0.40;;
68229;SDS011;55048;52.220;5.160;2022-11-15T15:52:09;6.43;;;0.50;;
68229;SDS011;55048;52.220;5.160;2022-11-15T15:54:34;3.47;;;0.52;;
68229;SDS011;55048;52.220;5.160;2022-11-15T15:57:00;4.07;;;0.50;;
68229;SDS011;55048;52.220;5.160;2022-11-15T15:59:25;3.75;;;0.57;;
68229;SDS011;55048;52.220;5.160;2022-11-15T16:01:51;4.88;;;0.60;;
68229;SDS011;55048;52.220;5.160;2022-11-15T16:04:16;2.97;;;0.70;;
68229;SDS011;55048;52.220;5.160;2022-11-15T16:06:42;4.80;;;0.73;;
68229;SDS011;55048;52.220;5.160;2022-11-15T16:09:16;3.25;;;0.50;;
68229;SDS011;55048;52.220;5.160;2022-11-15T16:11:46;1.92;;;0.40;;
68229;SDS011;55048;52.220;5.160;2022-11-15T16:14:12;3.90;;;0.50;;
68229;SDS011;55048;52.220;5.160;2022-11-15T16:16:37;10.50;;;0.98;;
68229;SDS011;55048;52.220;5.160;2022-11-15T16:19:03;2.40;;;0.50;;
68229;SDS011;55048;52.220;5.160;2022-11-15T16:21:29;2.63;;;0.60;;
68229;SDS011;55048;52.220;5.160;2022-11-15T16:23:55;5.68;;;0.57;;
68229;SDS011;55048;52.220;5.160;2022-11-15T16:26:21;1.05;;;0.50;;
68229;SDS011;55048;52.220;5.160;2022-11-15T16:28:51;3.35;;;0.73;;
68229;SDS011;55048;52.220;5.160;2022-11-15T16:31:17;3.50;;;0.77;;
68229;SDS011;55048;52.220;5.160;2022-11-15T16:33:45;2.53;;;0.60;;
68229;SDS011;55048;52.220;5.160;2022-11-15T16:36:18;4.72;;;0.55;;
68229;SDS011;55048;52.220;5.160;2022-11-15T16:38:48;8.13;;;0.73;;
68229;SDS011;55048;52.220;5.160;2022-11-15T16:41:14;3.22;;;0.60;;
68229;SDS011;55048;52.220;5.160;2022-11-15T16:43:43;2.10;;;0.50;;
68229;SDS011;55048;52.220;5.160;2022-11-15T16:46:18;2.33;;;0.50;;
68229;SDS011;55048;52.220;5.160;2022-11-15T16:48:46;6.85;;;1.20;;
68229;SDS011;55048;52.220;5.160;2022-11-15T16:51:11;3.13;;;0.45;;
68229;SDS011;55048;52.220;5.160;2022-11-15T16:53:37;3.92;;;0.60;;
68229;SDS011;55048;52.220;5.160;2022-11-15T16:56:02;3.10;;;0.60;;
68229;SDS011;55048;52.220;5.160;2022-11-15T16:58:28;5.85;;;0.75;;
68229;SDS011;55048;52.220;5.160;2022-11-15T17:00:54;3.28;;;0.50;;
68229;SDS011;55048;52.220;5.160;2022-11-15T17:03:23;7.22;;;0.75;;
68229;SDS011;55048;52.220;5.160;2022-11-15T17:05:49;3.60;;;0.60;;
68229;SDS011;55048;52.220;5.160;2022-11-15T17:08:15;7.20;;;0.70;;
68229;SDS011;55048;52.220;5.160;2022-11-15T17:10:40;4.40;;;0.60;;
68229;SDS011;55048;52.220;5.160;2022-11-15T17:13:07;5.47;;;0.85;;
68229;SDS011;55048;52.220;5.160;2022-11-15T17:15:36;2.90;;;0.80;;
68229;SDS011;55048;52.220;5.160;2022-11-15T17:18:01;3.08;;;0.70;;
68229;SDS011;55048;52.220;5.160;2022-11-15T17:20:27;2.90;;;0.70;;
68229;SDS011;55048;52.220;5.160;2022-11-15T17:22:52;7.43;;;0.88;;
68229;SDS011;55048;52.220;5.160;2022-11-15T17:25:18;3.47;;;0.77;;
68229;SDS011;55048;52.220;5.160;2022-11-15T17:27:44;3.65;;;0.88;;
68229;SDS011;55048;52.220;5.160;2022-11-15T17:30:11;3.30;;;0.88;;
68229;SDS011;55048;52.220;5.160;2022-11-15T17:32:39;6.05;;;1.70;;
68229;SDS011;55048;52.220;5.160;2022-11-15T17:35:05;3.00;;;0.80;;
68229;SDS011;55048;52.220;5.160;2022-11-15T17:37:31;3.92;;;0.82;;
68229;SDS011;55048;52.220;5.160;2022-11-15T17:39:57;4.95;;;0.80;;
68229;SDS011;55048;52.220;5.160;2022-11-15T17:42:22;2.13;;;0.90;;
68229;SDS011;55048;52.220;5.160;2022-11-15T17:44:47;6.20;;;1.10;;
68229;SDS011;55048;52.220;5.160;2022-11-15T17:47:13;7.65;;;1.05;;
68229;SDS011;55048;52.220;5.160;2022-11-15T17:49:38;6.53;;;1.15;;